Time;durP1;ratioP1;P1;durP2;ratioP2;P2;SDS_P1;SDS_P2;PMS_P1;PMS_P2;Temp;Humidity;BMP_temperature;BMP_pressure;BME280_temperature;BME280_humidity;BME280_pressure;Samples;Min_cycle;Max_cycle;Signal;HPM_P1;HPM_P2
2023/06/16 00:01:09;;;;;;;14.55;13.05;;;;;;;13.97;100.00;100852.44;4990016;28;20046;-83
2023/06/16 00:03:36;;;;;;;14.80;13.32;;;;;;;14.00;100.00;100858.53;4992791;28;20053;-84
2023/06/16 00:06:12;;;;;;;15.23;12.90;;;;;;;14.00;100.00;100855.88;4991104;28;20529;-85
2023/06/16 00:09:00;;;;;;;14.50;13.10;;;;;;;13.89;100.00;100844.72;4990634;28;20333;-84
2023/06/16 00:11:27;;;;;;;15.20;13.68;;;;;;;13.86;100.00;100844.78;4987174;28;20144;-85
2023/06/16 00:13:55;;;;;;;14.77;13.25;;;;;;;13.77;100.00;100842.44;4995010;28;20483;-83
2023/06/16 00:16:23;;;;;;;13.48;12.07;;;;;;;13.68;100.00;100837.41;4982156;28;20030;-83
2023/06/16 00:18:57;;;;;;;14.98;13.20;;;;;;;13.64;100.00;100836.63;4981229;28;20048;-85
2023/06/16 00:21:26;;;;;;;14.55;13.00;;;;;;;13.55;100.00;100834.25;4995502;28;20038;-83
2023/06/16 00:23:53;;;;;;;14.73;13.23;;;;;;;13.58;100.00;100834.16;5007228;28;20120;-84
2023/06/16 00:26:20;;;;;;;13.63;12.15;;;;;;;13.52;100.00;100832.53;4982399;28;20037;-84
2023/06/16 00:28:47;;;;;;;13.57;12.18;;;;;;;13.48;100.00;100827.38;4984682;28;20053;-84
2023/06/16 00:31:15;;;;;;;13.60;12.25;;;;;;;13.40;100.00;100830.28;4981454;28;20514;-83
2023/06/16 00:33:41;;;;;;;13.02;11.73;;;;;;;13.37;100.00;100830.38;4983950;28;20042;-85
2023/06/16 00:36:08;;;;;;;14.98;13.40;;;;;;;13.32;100.00;100823.44;4995054;28;20541;-84
2023/06/16 00:38:37;;;;;;;13.30;11.90;;;;;;;13.24;100.00;100821.00;4986952;28;20038;-84
2023/06/16 00:41:03;;;;;;;15.50;12.75;;;;;;;13.28;100.00;100821.78;4994559;28;20037;-85
2023/06/16 00:43:30;;;;;;;12.75;11.45;;;;;;;13.30;100.00;100818.19;4977800;28;20624;-84
2023/06/16 00:45:57;;;;;;;13.40;11.63;;;;;;;13.27;100.00;100812.09;4974299;28;20049;-83
2023/06/16 00:48:24;;;;;;;13.57;12.02;;;;;;;13.15;100.00;100818.59;4996871;28;20132;-84
2023/06/16 00:50:51;;;;;;;13.80;12.40;;;;;;;13.07;100.00;100816.16;4978631;28;20133;-83
2023/06/16 00:53:17;;;;;;;13.38;11.77;;;;;;;13.06;100.00;100817.06;4981835;28;20167;-83
2023/06/16 00:55:46;;;;;;;15.55;13.93;;;;;;;13.11;100.00;100817.78;4973329;28;20031;-84
2023/06/16 00:58:13;;;;;;;12.80;11.50;;;;;;;13.10;100.00;100809.88;4980875;28;20045;-84
2023/06/16 01:00:39;;;;;;;13.15;11.85;;;;;;;13.03;100.00;100816.28;4993623;28;20046;-84
2023/06/16 01:03:08;;;;;;;13.52;12.07;;;;;;;12.90;100.00;100811.31;4992903;28;20533;-84
2023/06/16 01:05:36;;;;;;;15.80;11.98;;;;;;;12.84;100.00;100802.66;4992896;28;20042;-83
2023/06/16 01:08:33;;;;;;;12.60;11.27;;;;;;;12.86;100.00;100807.03;4977642;28;20065;-84
2023/06/16 01:11:27;;;;;;;12.75;11.45;;;;;;;12.84;100.00;100805.31;4985747;28;20115;-83
2023/06/16 01:14:14;;;;;;;12.50;11.15;;;;;;;12.78;100.00;100802.81;4989460;28;20056;-85
2023/06/16 01:16:42;;;;;;;12.45;11.15;;;;;;;12.78;100.00;100803.72;4986916;28;20052;-85
2023/06/16 01:19:19;;;;;;;12.57;11.32;;;;;;;12.71;100.00;100798.63;4985318;28;20041;-84
2023/06/16 01:22:15;;;;;;;13.55;11.82;;;;;;;12.74;100.00;100799.41;4996597;28;20066;-83
2023/06/16 01:24:43;;;;;;;12.45;11.15;;;;;;;12.60;100.00;100794.44;4998019;28;20144;-84
2023/06/16 01:27:13;;;;;;;12.23;10.98;;;;;;;12.70;100.00;100795.09;4992561;28;20128;-83
2023/06/16 01:29:40;;;;;;;12.35;11.05;;;;;;;12.60;100.00;100789.16;4976221;28;20092;-83
2023/06/16 01:32:10;;;;;;;14.43;11.32;;;;;;;12.65;100.00;100797.00;4979397;28;20133;-84
2023/06/16 01:34:37;;;;;;;15.68;11.98;;;;;;;12.76;100.00;100786.09;4994565;28;20041;-84
2023/06/16 01:37:05;;;;;;;13.82;12.30;;;;;;;12.78;100.00;100798.41;4992525;28;20088;-83
2023/06/16 01:39:32;;;;;;;14.55;12.25;;;;;;;12.64;100.00;100796.13;4972735;28;20050;-84
2023/06/16 01:41:59;;;;;;;14.55;11.68;;;;;;;12.81;100.00;100789.50;4968443;28;20048;-84
2023/06/16 01:44:27;;;;;;;12.68;11.38;;;;;;;12.82;100.00;100793.88;4976336;28;20624;-83
2023/06/16 01:46:55;;;;;;;12.23;10.93;;;;;;;12.80;100.00;100801.88;4983534;28;20038;-84
2023/06/16 01:49:23;;;;;;;13.23;11.77;;;;;;;12.79;100.00;100793.97;4975719;28;20064;-85
2023/06/16 01:51:51;;;;;;;15.10;13.02;;;;;;;12.87;100.00;100795.50;4987635;28;21787;-84
2023/06/16 01:54:17;;;;;;;16.70;13.35;;;;;;;13.00;100.00;100787.19;5015003;28;20042;-84
2023/06/16 01:56:44;;;;;;;13.40;12.00;;;;;;;12.90;100.00;100787.47;4992197;28;20038;-83
2023/06/16 01:59:11;;;;;;;13.20;11.80;;;;;;;12.89;100.00;100783.06;4980907;28;20046;-84
2023/06/16 02:01:52;;;;;;;14.02;12.63;;;;;;;12.86;100.00;100777.88;4972902;28;20137;-83
2023/06/16 02:04:21;;;;;;;13.48;12.15;;;;;;;12.84;100.00;100781.44;5012638;28;20065;-83
2023/06/16 02:06:57;;;;;;;13.35;11.93;;;;;;;12.87;100.00;100776.06;4977284;28;20065;-84
2023/06/16 02:09:25;;;;;;;14.05;12.55;;;;;;;13.03;100.00;100774.72;5002862;28;20124;-84
2023/06/16 02:11:53;;;;;;;14.20;12.13;;;;;;;13.05;100.00;100777.34;4988546;28;20077;-83
2023/06/16 02:14:20;;;;;;;14.07;12.68;;;;;;;13.08;100.00;100770.16;4975790;28;20042;-84
2023/06/16 02:16:50;;;;;;;13.32;11.98;;;;;;;13.02;100.00;100772.09;4979407;28;20050;-83
2023/06/16 02:19:17;;;;;;;13.70;12.25;;;;;;;13.07;100.00;100768.41;4982487;28;20052;-84
2023/06/16 02:21:44;;;;;;;14.95;13.35;;;;;;;13.07;100.00;100770.19;4997267;28;20121;-85
2023/06/16 02:24:10;;;;;;;14.40;12.00;;;;;;;13.06;100.00;100777.28;5002645;28;20133;-83
2023/06/16 02:26:37;;;;;;;13.90;12.50;;;;;;;13.11;100.00;100770.03;4983137;28;20084;-84
2023/06/16 02:29:04;;;;;;;14.00;12.07;;;;;;;13.13;100.00;100767.38;4979343;28;20101;-84
2023/06/16 02:31:31;;;;;;;14.68;13.02;;;;;;;13.15;100.00;100770.84;5003826;28;20701;-83
2023/06/16 02:33:58;;;;;;;14.23;11.98;;;;;;;13.05;100.00;100764.94;4993725;28;20065;-84
2023/06/16 02:36:25;;;;;;;13.57;12.18;;;;;;;13.09;100.00;100760.41;4984274;28;20042;-84
2023/06/16 02:38:53;;;;;;;13.10;11.75;;;;;;;13.17;100.00;100764.56;4977517;28;20045;-84
2023/06/16 02:41:20;;;;;;;13.88;12.35;;;;;;;13.16;100.00;100764.63;4989815;28;20045;-85
2023/06/16 02:43:46;;;;;;;14.20;12.70;;;;;;;13.16;100.00;100754.00;4981339;28;20041;-85
2023/06/16 02:46:13;;;;;;;14.65;13.15;;;;;;;13.11;100.00;100758.56;4983444;28;20061;-84
2023/06/16 02:48:40;;;;;;;15.57;12.50;;;;;;;13.13;100.00;100757.63;4995815;28;20486;-84
2023/06/16 02:51:06;;;;;;;14.38;12.07;;;;;;;13.15;100.00;100761.09;4990853;28;20111;-83
2023/06/16 02:53:33;;;;;;;14.88;12.85;;;;;;;13.10;100.00;100763.00;5006710;28;20142;-84
2023/06/16 02:56:00;;;;;;;13.05;11.65;;;;;;;12.99;100.00;100750.97;4998669;28;20384;-83
2023/06/16 02:58:27;;;;;;;13.98;12.48;;;;;;;12.96;100.00;100752.81;4986648;28;20095;-84
2023/06/16 03:00:54;;;;;;;14.98;12.48;;;;;;;13.06;100.00;100747.25;4988012;28;20099;-84
2023/06/16 03:03:21;;;;;;;13.27;11.88;;;;;;;13.06;100.00;100744.59;5005307;28;20050;-83
2023/06/16 03:05:48;;;;;;;12.18;10.75;;;;;;;13.00;100.00;100747.41;4994876;28;20033;-84
2023/06/16 03:08:15;;;;;;;13.13;11.50;;;;;;;13.05;100.00;100751.69;5025922;28;20044;-83
2023/06/16 03:10:42;;;;;;;13.68;12.27;;;;;;;13.10;100.00;100754.19;5022927;28;20088;-84
2023/06/16 03:13:09;;;;;;;15.35;12.25;;;;;;;13.03;100.00;100750.88;4983007;28;20046;-83
2023/06/16 03:15:36;;;;;;;13.45;11.27;;;;;;;13.05;100.00;100748.16;4988791;28;20142;-84
2023/06/16 03:18:03;;;;;;;13.75;11.05;;;;;;;13.13;100.00;100747.03;4987173;28;20076;-83
2023/06/16 03:20:30;;;;;;;12.48;10.20;;;;;;;13.16;100.00;100754.00;4977136;28;20615;-83
2023/06/16 03:22:56;;;;;;;13.40;11.95;;;;;;;13.21;100.00;100749.47;4996926;28;20107;-84
2023/06/16 03:25:26;;;;;;;14.95;12.15;;;;;;;13.15;100.00;100747.84;5003759;28;20222;-84
2023/06/16 03:27:53;;;;;;;11.68;10.48;;;;;;;13.18;100.00;100739.78;4995023;28;20129;-84
2023/06/16 03:30:20;;;;;;;12.50;11.20;;;;;;;13.32;100.00;100730.56;5013744;28;20132;-84
2023/06/16 03:32:47;;;;;;;11.98;10.70;;;;;;;13.31;100.00;100747.41;5012836;28;20041;-83
2023/06/16 03:35:14;;;;;;;15.00;11.98;;;;;;;13.38;100.00;100741.88;4994265;28;20060;-83
2023/06/16 03:37:40;;;;;;;14.50;10.68;;;;;;;13.37;100.00;100740.16;4994825;28;20046;-84
2023/06/16 03:40:07;;;;;;;14.32;12.20;;;;;;;13.36;100.00;100748.13;4985224;28;20037;-85
2023/06/16 03:42:35;;;;;;;12.85;11.20;;;;;;;13.40;100.00;100748.00;5007424;28;20136;-83
2023/06/16 03:45:03;;;;;;;13.73;11.18;;;;;;;13.45;100.00;100746.09;4986418;28;20052;-84
2023/06/16 03:47:30;;;;;;;13.15;11.07;;;;;;;13.51;100.00;100739.69;4997184;28;20046;-85
2023/06/16 03:49:58;;;;;;;12.30;10.75;;;;;;;13.49;100.00;100739.75;4996313;28;20065;-85
2023/06/16 03:52:25;;;;;;;13.10;10.88;;;;;;;13.63;100.00;100749.09;4973116;28;20533;-84
2023/06/16 03:54:54;;;;;;;11.48;10.27;;;;;;;13.60;100.00;100754.47;4990204;28;20052;-86
2023/06/16 03:57:21;;;;;;;15.68;11.32;;;;;;;13.73;100.00;100755.81;4976811;28;20041;-84
2023/06/16 03:59:48;;;;;;;13.57;12.18;;;;;;;13.72;100.00;100747.00;4984628;28;20037;-84
2023/06/16 04:02:16;;;;;;;12.52;11.23;;;;;;;13.78;100.00;100746.78;4977062;28;20052;-84
2023/06/16 04:04:46;;;;;;;12.80;10.45;;;;;;;13.74;100.00;100755.78;4996206;28;20041;-85
2023/06/16 04:07:13;;;;;;;12.80;11.23;;;;;;;13.81;100.00;100753.81;4980808;28;20125;-86
2023/06/16 04:09:39;;;;;;;12.50;10.73;;;;;;;13.81;100.00;100756.44;4979982;28;20517;-85
2023/06/16 04:12:07;;;;;;;14.63;11.43;;;;;;;13.98;100.00;100747.94;4995985;28;20042;-85
2023/06/16 04:14:33;;;;;;;11.57;10.00;;;;;;;13.89;100.00;100751.75;4990159;28;20059;-84
2023/06/16 04:17:00;;;;;;;14.95;10.98;;;;;;;13.88;100.00;100754.47;4998134;28;20069;-83
2023/06/16 04:19:28;;;;;;;13.63;10.90;;;;;;;13.94;100.00;100748.94;4995499;28;20121;-82
2023/06/16 04:21:55;;;;;;;13.60;10.18;;;;;;;13.89;100.00;100753.56;5001978;28;20041;-85
2023/06/16 04:24:21;;;;;;;13.75;11.18;;;;;;;14.00;100.00;100746.97;4990837;28;20473;-83
2023/06/16 04:26:48;;;;;;;12.77;9.77;;;;;;;13.95;100.00;100748.88;4992749;28;20088;-86
2023/06/16 04:29:15;;;;;;;13.55;11.30;;;;;;;13.99;100.00;100753.19;5005044;28;20495;-86
2023/06/16 04:31:42;;;;;;;12.70;11.07;;;;;;;14.03;100.00;100752.16;4990392;28;20133;-85
2023/06/16 04:34:10;;;;;;;12.30;10.82;;;;;;;14.10;100.00;100752.81;4985768;28;20059;-85
2023/06/16 04:36:41;;;;;;;14.95;12.25;;;;;;;14.10;100.00;100742.19;5002447;28;20075;-86
2023/06/16 04:39:08;;;;;;;11.77;10.07;;;;;;;14.09;100.00;100751.09;4990063;28;20139;-85
2023/06/16 04:41:35;;;;;;;11.88;10.38;;;;;;;14.11;100.00;100741.28;4983775;28;20096;-86
2023/06/16 04:44:04;;;;;;;12.45;10.43;;;;;;;14.17;100.00;100753.50;4980431;28;20043;-84
2023/06/16 04:46:31;;;;;;;13.02;9.98;;;;;;;14.16;100.00;100743.78;4985539;28;20033;-84
2023/06/16 04:48:58;;;;;;;11.80;10.18;;;;;;;14.18;100.00;100742.81;5006360;28;20038;-84
2023/06/16 04:51:28;;;;;;;14.40;10.25;;;;;;;14.18;100.00;100740.16;4995183;28;20041;-85
2023/06/16 04:53:55;;;;;;;12.85;10.23;;;;;;;14.22;100.00;100738.28;5005021;28;20061;-84
2023/06/16 04:56:21;;;;;;;10.90;9.43;;;;;;;14.24;100.00;100745.25;4995713;28;20833;-85
2023/06/16 04:58:48;;;;;;;13.57;9.63;;;;;;;14.23;100.00;100740.00;4982147;28;20109;-85
2023/06/16 05:01:18;;;;;;;11.35;10.15;;;;;;;14.34;100.00;100736.06;5007110;28;20566;-85
2023/06/16 05:03:45;;;;;;;12.52;9.60;;;;;;;14.34;100.00;100732.53;4993300;28;20045;-85
2023/06/16 05:06:12;;;;;;;11.27;10.07;;;;;;;14.39;100.00;100741.22;4982086;28;20042;-86
2023/06/16 05:08:39;;;;;;;11.25;10.07;;;;;;;14.45;100.00;100730.38;5014140;28;20490;-84
2023/06/16 05:11:06;;;;;;;11.38;10.18;;;;;;;14.46;100.00;100739.22;5009479;28;20241;-85
2023/06/16 05:13:33;;;;;;;10.57;9.00;;;;;;;14.48;100.00;100734.75;5001125;28;20050;-85
2023/06/16 05:16:00;;;;;;;11.18;9.52;;;;;;;14.56;100.00;100725.56;4983669;28;20076;-85
2023/06/16 05:18:27;;;;;;;11.77;9.55;;;;;;;14.67;100.00;100737.59;5004951;28;20460;-84
2023/06/16 05:20:55;;;;;;;10.30;8.93;;;;;;;14.56;100.00;100735.34;4989393;28;20038;-85
2023/06/16 05:23:22;;;;;;;11.93;10.27;;;;;;;14.62;100.00;100735.09;4984684;28;20140;-85
2023/06/16 05:25:48;;;;;;;11.70;8.80;;;;;;;14.62;100.00;100733.31;4990955;28;20069;-84
2023/06/16 05:28:15;;;;;;;9.82;8.48;;;;;;;14.66;100.00;100722.59;4989275;28;20041;-84
2023/06/16 05:30:42;;;;;;;9.10;7.85;;;;;;;14.60;100.00;100721.00;5004493;28;20520;-84
2023/06/16 05:33:09;;;;;;;10.02;7.97;;;;;;;14.68;100.00;100729.56;5014771;28;20038;-85
2023/06/16 05:35:37;;;;;;;9.35;7.82;;;;;;;14.67;100.00;100738.47;4996366;28;20049;-85
2023/06/16 05:38:03;;;;;;;8.90;8.00;;;;;;;14.75;100.00;100739.06;5000527;28;20507;-84
2023/06/16 05:40:32;;;;;;;8.23;7.43;;;;;;;14.73;100.00;100738.25;4989086;28;20073;-87
2023/06/16 05:42:59;;;;;;;9.55;7.50;;;;;;;14.74;100.00;100741.78;4987085;28;20044;-84
2023/06/16 05:45:26;;;;;;;8.48;7.40;;;;;;;14.81;100.00;100735.31;4979582;28;20132;-84
2023/06/16 05:47:52;;;;;;;9.55;7.72;;;;;;;14.77;100.00;100744.31;4980556;28;20491;-83
2023/06/16 05:50:19;;;;;;;9.75;7.88;;;;;;;14.86;100.00;100744.84;4997095;28;20080;-83
2023/06/16 05:52:46;;;;;;;8.98;7.32;;;;;;;14.85;100.00;100739.59;5016663;28;20072;-84
2023/06/16 05:55:13;;;;;;;9.32;8.43;;;;;;;14.90;100.00;100741.16;5008177;28;20046;-84
2023/06/16 05:57:40;;;;;;;10.18;7.72;;;;;;;14.97;100.00;100741.81;5005653;28;20042;-84
2023/06/16 06:00:08;;;;;;;8.35;7.30;;;;;;;14.95;100.00;100748.09;4986744;28;20080;-85
2023/06/16 06:02:35;;;;;;;9.52;8.30;;;;;;;14.96;100.00;100745.38;5000850;28;20056;-86
2023/06/16 06:05:02;;;;;;;9.85;8.32;;;;;;;15.05;100.00;100753.03;4998825;28;20065;-84
2023/06/16 06:07:28;;;;;;;9.45;8.48;;;;;;;15.10;100.00;100740.41;4985016;28;20034;-84
2023/06/16 06:09:56;;;;;;;10.30;8.55;;;;;;;15.21;100.00;100750.63;5005495;28;20041;-86
2023/06/16 06:12:26;;;;;;;9.00;7.75;;;;;;;15.15;100.00;100750.91;4986958;28;20048;-87
2023/06/16 06:14:53;;;;;;;11.27;8.27;;;;;;;15.20;100.00;100749.78;5013457;28;20065;-83
2023/06/16 06:17:19;;;;;;;9.65;8.65;;;;;;;15.16;100.00;100750.84;4989201;28;20034;-84
2023/06/16 06:19:47;;;;;;;11.20;9.30;;;;;;;15.11;100.00;100752.78;5003941;28;20038;-83
2023/06/16 06:22:14;;;;;;;10.10;8.35;;;;;;;15.10;100.00;100753.72;4987435;28;20072;-85
2023/06/16 06:24:40;;;;;;;10.45;7.95;;;;;;;15.11;100.00;100755.44;5001256;28;20128;-84
2023/06/16 06:27:10;;;;;;;10.30;8.63;;;;;;;15.07;100.00;100751.19;4995483;28;20050;-84
2023/06/16 06:29:37;;;;;;;9.32;7.65;;;;;;;15.06;100.00;100752.13;4999282;28;20034;-85
2023/06/16 06:32:07;;;;;;;10.68;8.40;;;;;;;15.09;100.00;100759.09;4983749;28;20042;-85
2023/06/16 06:34:34;;;;;;;10.77;8.07;;;;;;;15.10;100.00;100761.69;4999167;28;20041;-85
2023/06/16 06:37:01;;;;;;;9.98;8.65;;;;;;;15.06;100.00;100762.75;4985166;28;20125;-85
2023/06/16 06:39:28;;;;;;;9.43;8.45;;;;;;;15.10;100.00;100753.72;4976412;28;20052;-84
2023/06/16 06:41:55;;;;;;;11.18;8.90;;;;;;;15.20;100.00;100757.75;5022556;28;20125;-85
2023/06/16 06:44:21;;;;;;;11.65;8.70;;;;;;;15.28;100.00;100760.13;4978681;28;20873;-85
2023/06/16 06:46:50;;;;;;;11.02;9.05;;;;;;;15.35;100.00;100758.97;4981159;28;20049;-84
2023/06/16 06:49:17;;;;;;;11.32;8.80;;;;;;;15.47;100.00;100762.97;4972602;28;20046;-85
2023/06/16 06:51:44;;;;;;;12.95;8.93;;;;;;;15.48;100.00;100764.72;4995539;28;20073;-84
2023/06/16 06:54:10;;;;;;;13.65;8.98;;;;;;;15.60;100.00;100764.22;5014554;28;20065;-84
2023/06/16 06:56:37;;;;;;;11.02;8.05;;;;;;;15.40;100.00;100766.78;5000218;28;20044;-82
2023/06/16 06:59:04;;;;;;;9.50;8.07;;;;;;;15.57;100.00;100772.34;4985331;28;20114;-83
2023/06/16 07:01:31;;;;;;;10.02;8.48;;;;;;;15.52;100.00;100768.97;4989092;28;20054;-84
2023/06/16 07:03:57;;;;;;;8.13;7.30;;;;;;;15.53;100.00;100776.03;5010614;28;20037;-83
2023/06/16 07:06:24;;;;;;;12.45;9.35;;;;;;;15.61;100.00;100773.97;4992966;28;20416;-85
2023/06/16 07:08:51;;;;;;;9.98;8.50;;;;;;;15.59;100.00;100766.94;4988097;28;20594;-83
2023/06/16 07:11:18;;;;;;;9.27;8.38;;;;;;;15.70;100.00;100770.06;5006173;28;20030;-84
2023/06/16 07:13:46;;;;;;;9.88;7.93;;;;;;;15.72;100.00;100776.19;5021368;28;20072;-84
2023/06/16 07:16:13;;;;;;;9.48;8.02;;;;;;;15.72;100.00;100773.53;4982269;28;20513;-83
2023/06/16 07:18:40;;;;;;;8.70;7.85;;;;;;;15.74;100.00;100780.56;4981288;28;20079;-84
2023/06/16 07:21:08;;;;;;;8.25;7.40;;;;;;;15.79;100.00;100774.16;4979523;28;20132;-84
2023/06/16 07:23:36;;;;;;;8.77;7.32;;;;;;;15.92;100.00;100772.75;5006387;28;20076;-84
2023/06/16 07:26:02;;;;;;;8.93;7.68;;;;;;;15.97;100.00;100779.59;4985930;28;20048;-85
2023/06/16 07:28:29;;;;;;;7.55;6.82;;;;;;;16.03;100.00;100781.16;4996380;28;20046;-84
2023/06/16 07:30:56;;;;;;;7.20;5.70;;;;;;;16.04;100.00;100778.44;4996596;28;20038;-86
2023/06/16 07:33:23;;;;;;;6.47;5.28;;;;;;;16.01;100.00;100780.38;4998121;28;20070;-85
2023/06/16 07:35:49;;;;;;;5.05;4.50;;;;;;;16.04;100.00;100785.56;5009468;28;20038;-85
2023/06/16 07:38:16;;;;;;;5.05;4.32;;;;;;;16.02;100.00;100782.97;4968822;28;20041;-86
2023/06/16 07:40:43;;;;;;;4.85;4.10;;;;;;;16.11;100.00;100789.72;4979031;28;20133;-85
2023/06/16 07:43:10;;;;;;;4.18;3.40;;;;;;;16.27;100.00;100782.81;4994994;28;20037;-85
2023/06/16 07:45:39;;;;;;;6.38;3.50;;;;;;;16.57;100.00;100779.78;4991606;28;20092;-85
2023/06/16 07:48:07;;;;;;;5.80;3.60;;;;;;;16.82;100.00;100782.28;4991402;28;20062;-85
2023/06/16 07:50:35;;;;;;;5.05;3.55;;;;;;;17.03;100.00;100786.63;4994177;28;20045;-86
2023/06/16 07:53:04;;;;;;;5.07;3.42;;;;;;;17.00;100.00;100778.78;4987104;28;20050;-85
2023/06/16 07:55:30;;;;;;;3.88;3.47;;;;;;;16.95;100.00;100790.59;5000166;28;20053;-85
2023/06/16 07:57:57;;;;;;;3.92;3.28;;;;;;;16.98;100.00;100790.44;4983260;28;20046;-85
2023/06/16 08:00:24;;;;;;;4.43;3.28;;;;;;;16.99;100.00;100786.88;4996778;28;20052;-86
2023/06/16 08:02:51;;;;;;;3.50;3.20;;;;;;;16.99;100.00;100781.53;5009428;28;20125;-86
2023/06/16 08:05:18;;;;;;;4.47;3.17;;;;;;;16.97;100.00;100786.91;4986059;28;20045;-86
2023/06/16 08:07:47;;;;;;;3.80;2.97;;;;;;;16.91;100.00;100781.00;5011504;28;20045;-85
2023/06/16 08:10:19;;;;;;;4.65;4.15;;;;;;;16.91;100.00;100781.88;4990595;28;20052;-85
2023/06/16 08:12:49;;;;;;;4.90;4.35;;;;;;;17.02;100.00;100781.38;5001499;28;20044;-86
2023/06/16 08:15:16;;;;;;;4.93;4.13;;;;;;;17.05;100.00;100770.53;4986158;28;20088;-86
2023/06/16 08:17:43;;;;;;;4.82;3.85;;;;;;;17.07;100.00;100790.06;5010294;28;20046;-85
2023/06/16 08:20:11;;;;;;;5.00;4.20;;;;;;;17.22;100.00;100788.47;5001910;28;20046;-86
2023/06/16 08:22:37;;;;;;;7.95;4.38;;;;;;;17.33;100.00;100786.19;4995214;28;20049;-87
2023/06/16 08:25:05;;;;;;;5.43;4.82;;;;;;;17.32;100.00;100788.00;4990505;28;20041;-84
2023/06/16 08:27:32;;;;;;;7.00;4.65;;;;;;;17.25;100.00;100785.69;4985739;28;20070;-89
2023/06/16 08:29:58;;;;;;;6.32;4.97;;;;;;;17.24;100.00;100784.81;5007003;28;20050;-85
2023/06/16 08:32:25;;;;;;;7.75;5.13;;;;;;;17.05;100.00;100791.91;4985009;28;20700;-85
2023/06/16 08:34:52;;;;;;;7.15;4.65;;;;;;;17.21;100.00;100789.41;5010507;28;20041;-87
2023/06/16 08:37:19;;;;;;;6.45;5.00;;;;;;;17.37;100.00;100788.63;4997467;28;20057;-87
2023/06/16 08:39:55;;;;;;;5.50;4.63;;;;;;;17.42;100.00;100785.75;5011052;28;20029;-86
2023/06/16 08:42:22;;;;;;;7.30;4.55;;;;;;;17.56;100.00;100788.63;4993091;28;20049;-87
2023/06/16 08:44:52;;;;;;;6.18;4.60;;;;;;;17.51;100.00;100795.16;4984996;28;20049;-86
2023/06/16 08:47:18;;;;;;;5.38;4.40;;;;;;;17.53;100.00;100783.44;5002923;28;20041;-85
2023/06/16 08:49:46;;;;;;;5.30;3.95;;;;;;;17.67;100.00;100780.13;4981065;28;20043;-86
2023/06/16 08:52:16;;;;;;;7.72;4.20;;;;;;;17.63;100.00;100783.88;4989996;28;20686;-86
2023/06/16 08:54:57;;;;;;;5.63;4.55;;;;;;;17.61;100.00;100786.63;4995762;28;20045;-85
2023/06/16 08:57:27;;;;;;;5.80;4.30;;;;;;;17.54;100.00;100785.16;5000297;28;20034;-86
2023/06/16 08:59:57;;;;;;;5.47;4.60;;;;;;;17.66;100.00;100781.06;4992246;28;20047;-85
2023/06/16 09:02:29;;;;;;;5.25;4.10;;;;;;;17.91;100.00;100788.78;4984488;28;20073;-85
2023/06/16 09:04:59;;;;;;;4.97;3.88;;;;;;;17.85;100.00;100783.75;4995300;28;20042;-86
2023/06/16 09:07:27;;;;;;;5.70;4.30;;;;;;;17.89;100.00;100786.19;4984193;28;20038;-86
2023/06/16 09:09:55;;;;;;;5.07;3.88;;;;;;;17.67;100.00;100785.47;4977804;28;20565;-87
2023/06/16 09:12:21;;;;;;;5.78;4.95;;;;;;;17.62;100.00;100785.66;4996463;28;20073;-86
2023/06/16 09:14:50;;;;;;;5.63;4.60;;;;;;;17.57;100.00;100789.50;4997252;28;20096;-86
2023/06/16 09:17:24;;;;;;;6.70;4.47;;;;;;;17.59;100.00;100795.66;5012285;28;20033;-85
2023/06/16 09:19:52;;;;;;;9.32;4.57;;;;;;;17.53;100.00;100785.25;4992460;28;20105;-86
2023/06/16 09:22:23;;;;;;;4.65;4.10;;;;;;;17.30;100.00;100787.19;5003792;28;20128;-87
2023/06/16 09:24:55;;;;;;;7.70;4.80;;;;;;;17.38;100.00;100793.03;5003378;28;20033;-86
2023/06/16 09:27:25;;;;;;;6.03;4.95;;;;;;;17.75;100.00;100786.00;5006417;28;20072;-84
2023/06/16 09:29:57;;;;;;;8.48;5.05;;;;;;;18.25;100.00;100788.00;4991867;28;20038;-85
2023/06/16 09:32:25;;;;;;;6.80;4.95;;;;;;;18.38;100.00;100786.41;5030516;28;20057;-86
2023/06/16 09:34:51;;;;;;;6.47;4.28;;;;;;;18.73;100.00;100781.94;4986655;28;20061;-86
2023/06/16 09:37:19;;;;;;;8.65;4.68;;;;;;;18.75;100.00;100800.59;5010797;28;20073;-85
2023/06/16 09:39:49;;;;;;;5.20;4.35;;;;;;;18.22;100.00;100783.63;4996886;28;20491;-86
2023/06/16 09:42:18;;;;;;;6.57;4.72;;;;;;;18.50;100.00;100796.50;5004037;28;20066;-85
2023/06/16 09:44:47;;;;;;;7.28;4.72;;;;;;;18.41;100.00;100793.41;4993097;28;20064;-85
2023/06/16 09:47:14;;;;;;;9.50;4.88;;;;;;;18.62;100.00;100788.78;4996468;28;20052;-86
2023/06/16 09:49:44;;;;;;;6.93;5.20;;;;;;;18.91;100.00;100784.59;4987363;28;20492;-85
2023/06/16 09:52:10;;;;;;;7.25;5.45;;;;;;;18.71;100.00;100791.00;5009705;28;20045;-86
2023/06/16 09:54:37;;;;;;;5.75;4.93;;;;;;;19.10;100.00;100780.00;4997124;28;20052;-87
2023/06/16 09:57:05;;;;;;;5.80;4.82;;;;;;;19.32;100.00;100787.72;4980323;28;20056;-86
2023/06/16 09:59:32;;;;;;;5.97;5.13;;;;;;;19.23;99.81;100783.75;4994124;28;20069;-86
2023/06/16 10:02:01;;;;;;;7.82;5.47;;;;;;;18.95;98.27;100786.19;4985766;28;20080;-86
2023/06/16 10:04:29;;;;;;;6.68;5.03;;;;;;;18.92;100.00;100779.19;4993134;28;20038;-85
2023/06/16 10:07:00;;;;;;;7.55;5.28;;;;;;;18.81;100.00;100782.41;4998803;28;20037;-86
2023/06/16 10:09:33;;;;;;;6.65;5.15;;;;;;;18.87;100.00;100786.59;4984286;28;20041;-85
2023/06/16 10:12:01;;;;;;;7.38;4.53;;;;;;;18.81;96.78;100776.19;5005562;28;20041;-85
2023/06/16 10:14:33;;;;;;;6.10;4.90;;;;;;;18.88;97.22;100771.38;5009321;28;20120;-85
2023/06/16 10:17:01;;;;;;;6.43;4.80;;;;;;;18.92;100.00;100781.88;4981314;28;20065;-85
2023/06/16 10:19:30;;;;;;;6.18;4.85;;;;;;;18.71;100.00;100774.94;5020791;28;20072;-86
2023/06/16 10:21:58;;;;;;;7.03;4.53;;;;;;;18.80;100.00;100771.78;5018711;28;20064;-87
2023/06/16 10:24:25;;;;;;;6.25;5.30;;;;;;;18.79;99.29;100770.94;4991124;28;20045;-85
2023/06/16 10:26:52;;;;;;;5.85;4.95;;;;;;;18.50;96.25;100774.25;4986303;28;20044;-85
2023/06/16 10:29:20;;;;;;;6.25;5.60;;;;;;;18.70;97.25;100770.56;5008895;28;20030;-85
2023/06/16 10:31:51;;;;;;;7.20;5.25;;;;;;;18.67;95.18;100771.59;4984814;28;20164;-86
2023/06/16 10:34:20;;;;;;;7.72;5.60;;;;;;;18.45;nan;100770.91;4996399;28;20037;-84
2023/06/16 10:36:49;;;;;;;6.95;5.55;;;;;;;18.30;96.73;100772.56;4998164;28;20064;-85
2023/06/16 10:39:17;;;;;;;6.28;5.20;;;;;;;18.34;100.00;100779.50;5007371;28;20048;-85
2023/06/16 10:41:54;;;;;;;4.95;4.45;;;;;;;18.49;97.91;100778.69;4988186;28;20132;-84
2023/06/16 10:44:31;;;;;;;6.75;5.20;;;;;;;18.96;93.79;100772.72;4991125;28;20101;-85
2023/06/16 10:47:12;;;;;;;4.78;4.28;;;;;;;19.10;89.94;100790.72;5014593;28;20045;-86
2023/06/16 10:49:46;;;;;;;8.83;4.80;;;;;;;19.37;92.80;100777.63;5019888;28;20041;-84
2023/06/16 10:52:16;;;;;;;7.95;4.60;;;;;;;19.25;84.21;100781.84;4983525;28;20037;-83
2023/06/16 10:54:45;;;;;;;7.97;5.20;;;;;;;19.30;88.73;100776.25;4990477;28;20100;-86
2023/06/16 10:57:12;;;;;;;6.35;4.85;;;;;;;19.31;92.29;100780.66;4980834;28;20087;-85
2023/06/16 10:59:54;;;;;;;7.15;4.57;;;;;;;19.46;94.98;100778.94;4994364;28;20042;-84
2023/06/16 11:02:26;;;;;;;8.77;4.85;;;;;;;19.29;87.12;100777.19;4986277;28;20490;-86
2023/06/16 11:05:09;;;;;;;7.57;4.40;;;;;;;18.92;86.35;100778.28;4993609;28;20416;-85
2023/06/16 11:07:40;;;;;;;6.10;4.47;;;;;;;18.89;84.73;100776.66;5019571;28;20038;-86
2023/06/16 11:10:08;;;;;;;7.90;4.63;;;;;;;18.84;90.00;100776.91;4981833;28;20041;-85
2023/06/16 11:12:36;;;;;;;7.57;4.15;;;;;;;18.85;87.66;100780.47;4988069;28;20084;-84
2023/06/16 11:15:04;;;;;;;5.18;4.20;;;;;;;18.90;86.03;100777.53;5014375;28;20057;-84